createdAt,value
2019-03-24T00:02:49.338Z,92.65
2019-03-24T00:05:34.627Z,101.12
2019-03-24T00:08:07.451Z,97.97
2019-03-24T00:10:51.604Z,102.53
2019-03-24T00:13:43.217Z,101.50
2019-03-24T00:16:28.048Z,99.28
2019-03-24T00:19:19.729Z,97.22
2019-03-24T00:22:03.995Z,98.55
2019-03-24T00:24:55.651Z,101.38
2019-03-24T00:27:39.753Z,109.10
2019-03-24T00:30:31.752Z,110.72
2019-03-24T00:33:15.765Z,97.20
2019-03-24T00:36:00.107Z,109.25
2019-03-24T00:38:51.659Z,97.22
2019-03-24T00:41:35.689Z,110.48
2019-03-24T00:44:27.312Z,108.87
2019-03-24T00:47:11.854Z,100.85
2019-03-24T00:50:03.784Z,118.90
2019-03-24T00:52:36.594Z,95.77
2019-03-24T00:55:28.246Z,104.83
2019-03-24T00:58:12.233Z,113.32
2019-03-24T01:01:03.917Z,102.65
2019-03-24T01:03:48.126Z,108.22
2019-03-24T01:06:39.850Z,108.97
2019-03-24T01:09:24.303Z,107.07
2019-03-24T01:12:15.958Z,110.97
2019-03-24T01:14:59.614Z,113.97
2019-03-24T01:17:51.671Z,117.85
2019-03-24T01:20:35.731Z,124.65
2019-03-24T01:23:27.505Z,105.83
2019-03-24T01:26:11.791Z,106.50
2019-03-24T01:29:03.467Z,100.58
2019-03-24T01:31:47.881Z,120.13
2019-03-24T01:34:39.494Z,112.08
2019-03-24T01:37:23.307Z,103.60
2019-03-24T01:40:15.081Z,107.40
2019-03-24T01:42:59.737Z,126.00
2019-03-24T01:45:58.558Z,114.50
2019-03-24T01:48:43.384Z,114.88
2019-03-24T01:51:34.971Z,106.58
2019-03-24T01:54:18.774Z,102.67
2019-03-24T01:57:10.502Z,106.60
2019-03-24T01:59:55.320Z,120.05
2019-03-24T02:02:46.991Z,112.00
2019-03-24T02:05:31.209Z,118.35
2019-03-24T02:08:22.966Z,133.50
2019-03-24T02:11:06.967Z,115.60
2019-03-24T02:13:50.711Z,108.15
2019-03-24T02:16:42.394Z,112.45
2019-03-24T02:19:26.643Z,112.68
2019-03-24T02:22:18.308Z,114.45
2019-03-24T02:25:02.096Z,116.47
2019-03-24T02:27:53.715Z,124.75
2019-03-24T02:30:37.918Z,118.55
2019-03-24T02:33:29.619Z,123.50
2019-03-24T02:36:14.174Z,117.10
2019-03-24T02:42:21.935Z,108.72
2019-03-24T02:45:07.185Z,112.03
2019-03-24T02:47:51.354Z,130.00
2019-03-24T02:50:35.385Z,111.08
2019-03-24T02:53:27.167Z,116.55
2019-03-24T02:56:11.327Z,103.80
2019-03-24T02:59:03.117Z,107.05
2019-03-24T03:01:47.627Z,112.80
2019-03-24T03:04:39.687Z,118.33
2019-03-24T03:07:24.221Z,108.15
2019-03-24T03:10:16.103Z,117.87
2019-03-24T03:13:00.271Z,119.60
2019-03-24T03:15:52.050Z,115.90
2019-03-24T03:18:36.392Z,98.90
2019-03-24T03:21:28.248Z,117.35
2019-03-24T03:24:12.247Z,111.75
2019-03-24T03:27:04.985Z,122.02
2019-03-24T03:29:50.120Z,131.52
2019-03-24T03:32:41.925Z,125.00
2019-03-24T03:35:25.780Z,112.50
2019-03-24T03:38:17.562Z,113.20
2019-03-24T03:41:01.506Z,113.15
2019-03-24T03:43:53.301Z,113.85
2019-03-24T03:46:37.241Z,115.90
2019-03-24T03:49:29.308Z,107.30
2019-03-24T03:52:14.193Z,128.02
2019-03-24T03:55:06.499Z,102.42
2019-03-24T03:57:50.431Z,104.43
2019-03-24T04:00:42.234Z,132.30
2019-03-24T04:03:26.045Z,112.80
2019-03-24T04:06:10.075Z,144.55
2019-03-24T04:09:01.895Z,103.80
2019-03-24T04:11:45.972Z,121.53
2019-03-24T04:14:37.736Z,125.18
2019-03-24T04:17:23.513Z,110.95
2019-03-24T04:20:15.314Z,116.20
2019-03-24T04:22:59.645Z,123.80
2019-03-24T04:25:51.402Z,106.27
2019-03-24T04:28:35.553Z,113.80
2019-03-24T04:31:27.332Z,114.20
2019-03-24T04:34:11.939Z,106.35
2019-03-24T04:37:04.119Z,112.75
2019-03-24T04:39:48.123Z,100.67
2019-03-24T04:42:31.044Z,105.92
2019-03-24T04:45:14.981Z,105.30
2019-03-24T04:48:06.787Z,105.80
2019-03-24T04:50:50.622Z,115.52
2019-03-24T04:53:34.418Z,125.60
2019-03-24T04:56:26.191Z,110.45
2019-03-24T04:59:10.248Z,108.85
2019-03-24T05:02:02.039Z,122.47
2019-03-24T05:04:47.027Z,110.85
2019-03-24T05:07:39.123Z,103.55
2019-03-24T05:10:26.361Z,92.40
2019-03-24T05:13:18.136Z,119.22
2019-03-24T05:16:02.309Z,92.35
2019-03-24T05:18:46.343Z,96.17
2019-03-24T05:21:38.101Z,97.15
2019-03-24T05:24:22.020Z,96.55
2019-03-24T05:27:13.790Z,96.45
2019-03-24T05:29:57.896Z,102.45
2019-03-24T05:32:49.920Z,102.40
2019-03-24T05:35:34.292Z,96.20
2019-03-24T05:38:26.077Z,102.60
2019-03-24T05:43:53.142Z,88.92
2019-03-24T05:46:44.944Z,99.32
2019-03-24T05:49:28.879Z,91.20
2019-03-24T05:52:20.665Z,93.58
2019-03-24T05:55:05.808Z,106.00
2019-03-24T05:57:57.651Z,105.75
2019-03-24T06:00:41.305Z,102.80
2019-03-24T06:03:33.097Z,100.45
2019-03-24T06:06:17.595Z,102.32
2019-03-24T06:09:09.401Z,99.40
2019-03-24T06:11:54.205Z,101.65
2019-03-24T06:14:45.980Z,101.35
2019-03-24T06:17:30.580Z,93.65
2019-03-24T06:20:22.357Z,94.32
2019-03-24T06:23:06.770Z,87.53
2019-03-24T06:25:58.561Z,96.42
2019-03-24T06:28:42.707Z,95.85
2019-03-24T06:31:34.494Z,91.42
2019-03-24T06:34:18.642Z,99.45
2019-03-24T06:37:10.401Z,107.12
2019-03-24T06:39:43.329Z,100.70
2019-03-24T06:42:35.111Z,102.20
2019-03-24T06:45:27.942Z,110.92
2019-03-24T06:47:58.126Z,98.78
2019-03-24T06:50:59.475Z,110.35
2019-03-24T06:53:51.246Z,102.50
2019-03-24T06:56:35.498Z,114.32
2019-03-24T06:59:27.263Z,105.65
2019-03-24T07:02:11.340Z,110.92
2019-03-24T07:05:03.300Z,108.05
2019-03-24T07:07:47.083Z,110.70
2019-03-24T07:10:38.866Z,103.80
2019-03-24T07:13:23.291Z,91.15
2019-03-24T07:16:15.101Z,103.80
2019-03-24T07:19:00.161Z,102.72
2019-03-24T07:21:45.209Z,101.55
2019-03-24T07:24:37.058Z,118.65
2019-03-24T07:27:21.311Z,109.07
2019-03-24T07:30:13.075Z,108.78
2019-03-24T07:32:56.962Z,103.70
2019-03-24T07:35:48.772Z,124.55
2019-03-24T07:38:32.834Z,115.50
2019-03-24T07:41:17.125Z,121.67
2019-03-24T07:44:01.608Z,122.78
2019-03-24T07:46:46.441Z,107.78
2019-03-24T07:49:19.392Z,108.45
2019-03-24T07:52:04.073Z,103.70
2019-03-24T07:54:55.836Z,113.42
2019-03-24T07:57:40.430Z,119.60
2019-03-24T08:00:51.052Z,114.03
2019-03-24T08:03:35.308Z,110.65
2019-03-24T08:06:27.092Z,111.40
2019-03-24T08:09:11.525Z,104.15
2019-03-24T08:12:03.357Z,124.75
2019-03-24T08:14:47.761Z,112.10
2019-03-24T08:17:39.597Z,108.57
2019-03-24T08:20:23.665Z,117.10
2019-03-24T08:23:15.828Z,104.50
2019-03-24T08:26:00.372Z,99.13
2019-03-24T08:28:53.195Z,108.78
2019-03-24T08:31:36.053Z,111.25
2019-03-24T08:34:27.810Z,96.45
2019-03-24T08:37:11.800Z,116.33
2019-03-24T08:40:03.999Z,122.62
2019-03-24T08:42:47.987Z,124.57
2019-03-24T08:45:39.822Z,118.90
2019-03-24T08:48:23.611Z,108.22
2019-03-24T08:51:08.426Z,114.10
2019-03-24T08:54:00.246Z,125.50
2019-03-24T08:56:44.518Z,129.30
2019-03-24T08:59:17.550Z,110.63
2019-03-24T09:02:01.869Z,112.72
2019-03-24T09:04:53.656Z,106.63
2019-03-24T09:07:37.965Z,116.27
2019-03-24T09:10:32.514Z,128.07
2019-03-24T09:13:17.011Z,113.95
2019-03-24T09:16:08.864Z,120.05
2019-03-24T09:18:53.376Z,119.45
2019-03-24T09:21:45.225Z,112.60
2019-03-24T09:24:29.549Z,113.88
2019-03-24T09:27:15.341Z,128.12
2019-03-24T09:33:52.049Z,119.87
2019-03-24T09:36:36.740Z,107.67
2019-03-24T09:39:21.236Z,106.72
2019-03-24T09:42:13.058Z,107.95
2019-03-24T09:44:57.499Z,115.17
2019-03-24T09:47:49.371Z,120.10
2019-03-24T09:50:33.915Z,123.72
2019-03-24T09:53:26.122Z,122.95
2019-03-24T09:56:10.165Z,126.95
2019-03-24T09:58:54.269Z,118.13
2019-03-24T10:01:46.018Z,117.22
2019-03-24T10:04:30.640Z,117.25
2019-03-24T10:07:22.444Z,124.55
2019-03-24T10:10:07.899Z,118.87
2019-03-24T10:12:59.702Z,116.22
2019-03-24T10:15:44.851Z,110.35
2019-03-24T10:18:36.747Z,109.97
2019-03-24T10:21:21.650Z,116.28
2019-03-24T10:24:13.486Z,119.40
2019-03-24T10:26:56.277Z,110.92
2019-03-24T10:29:48.086Z,105.85
2019-03-24T10:32:32.153Z,108.45
2019-03-24T10:35:15.889Z,106.75
2019-03-24T10:38:07.695Z,117.62
2019-03-24T10:40:51.752Z,118.87
2019-03-24T10:43:43.574Z,105.60
2019-03-24T10:46:27.455Z,111.57
2019-03-24T10:49:24.796Z,118.28
2019-03-24T10:52:11.940Z,101.30
2019-03-24T10:55:03.858Z,102.35
2019-03-24T10:57:37.064Z,108.22
2019-03-24T11:00:47.962Z,119.75
2019-03-24T11:03:32.665Z,112.47
2019-03-24T11:06:24.499Z,101.12
2019-03-24T11:09:08.674Z,104.85
2019-03-24T11:11:52.599Z,119.05
2019-03-24T11:14:44.400Z,105.95
2019-03-24T11:17:29.174Z,88.25
2019-03-24T11:20:20.977Z,105.15
2019-03-24T11:23:04.798Z,104.78
2019-03-24T11:25:56.669Z,103.10
2019-03-24T11:28:41.552Z,86.72
2019-03-24T11:31:33.154Z,94.85
2019-03-24T11:34:22.775Z,91.37
2019-03-24T11:37:14.447Z,97.15
2019-03-24T11:39:58.884Z,90.77
2019-03-24T11:42:50.713Z,83.90
2019-03-24T11:45:36.075Z,86.35
2019-03-24T11:48:27.751Z,96.22
2019-03-24T11:51:11.504Z,80.83
2019-03-24T11:54:03.181Z,90.97
2019-03-24T11:56:47.845Z,92.57
2019-03-24T11:59:39.907Z,90.28
2019-03-24T12:02:23.688Z,90.45
2019-03-24T12:05:07.502Z,92.67
2019-03-24T12:07:51.013Z,79.60
2019-03-24T12:10:34.750Z,85.15
2019-03-24T12:13:27.625Z,89.10
2019-03-24T12:16:12.067Z,82.62
2019-03-24T12:19:04.138Z,95.25
2019-03-24T12:21:49.036Z,87.27
2019-03-24T12:24:40.663Z,85.38
2019-03-24T12:27:25.130Z,88.72
2019-03-24T12:30:16.772Z,91.28
2019-03-24T12:33:01.306Z,89.42
2019-03-24T12:35:52.922Z,82.70
2019-03-24T12:38:38.437Z,90.53
2019-03-24T12:41:30.170Z,86.05
2019-03-24T12:44:15.632Z,91.60
2019-03-24T12:47:00.255Z,80.60
2019-03-24T12:49:44.500Z,81.02
2019-03-24T12:52:36.226Z,90.77
2019-03-24T12:55:20.610Z,78.05
2019-03-24T12:58:12.463Z,79.70
2019-03-24T13:00:57.869Z,89.32
2019-03-24T13:03:42.040Z,82.08
2019-03-24T13:06:34.088Z,78.25
2019-03-24T13:09:08.929Z,78.20
2019-03-24T13:11:41.673Z,79.65
2019-03-24T13:14:27.209Z,72.80
2019-03-24T13:17:18.895Z,72.27
2019-03-24T13:20:02.711Z,81.42
2019-03-24T13:22:54.423Z,70.55
2019-03-24T13:25:38.502Z,77.58
2019-03-24T13:28:30.143Z,78.22
2019-03-24T13:31:14.856Z,79.75
2019-03-24T13:34:06.583Z,75.60
2019-03-24T13:36:50.897Z,73.28
2019-03-24T13:39:42.528Z,74.45
2019-03-24T13:42:27.324Z,68.97
2019-03-24T13:45:18.967Z,70.40
2019-03-24T13:48:02.801Z,73.60
2019-03-24T13:50:54.664Z,72.30
2019-03-24T13:53:38.993Z,71.10
2019-03-24T13:56:30.722Z,74.58
2019-03-24T13:59:15.299Z,77.25
2019-03-24T14:05:17.110Z,72.82
2019-03-24T14:08:08.730Z,66.67
2019-03-24T14:10:52.930Z,75.05
2019-03-24T14:13:44.709Z,80.97
2019-03-24T14:16:28.903Z,63.95
2019-03-24T14:19:20.826Z,71.95
2019-03-24T14:22:04.856Z,77.37
2019-03-24T14:24:56.730Z,70.78
2019-03-24T14:27:41.075Z,78.20
2019-03-24T14:30:51.670Z,84.42
2019-03-24T14:33:35.631Z,78.42
2019-03-24T14:36:08.633Z,70.72
2019-03-24T14:39:00.616Z,72.42
2019-03-24T14:41:45.956Z,75.75
2019-03-24T14:44:29.789Z,69.90
2019-03-24T14:47:21.783Z,67.80
2019-03-24T14:50:05.887Z,76.30
2019-03-24T14:52:57.686Z,79.87
2019-03-24T14:55:42.360Z,68.33
2019-03-24T14:58:34.078Z,79.15
2019-03-24T15:01:21.538Z,76.57
2019-03-24T15:04:13.713Z,75.80
2019-03-24T15:07:05.609Z,71.87
2019-03-24T15:09:50.488Z,75.67
2019-03-24T15:12:43.874Z,73.90
2019-03-24T15:15:27.448Z,80.85
2019-03-24T15:18:11.980Z,72.80
2019-03-24T15:21:06.427Z,73.07
2019-03-24T15:23:50.731Z,78.78
2019-03-24T15:26:42.560Z,75.42
2019-03-24T15:29:27.990Z,74.00
2019-03-24T15:32:19.743Z,77.70
2019-03-24T15:35:04.142Z,79.50
2019-03-24T15:37:48.499Z,75.12
2019-03-24T15:40:41.165Z,69.12
2019-03-24T15:43:25.718Z,81.85
2019-03-24T15:49:28.273Z,74.75
2019-03-24T15:52:20.205Z,75.90
2019-03-24T15:55:05.670Z,69.15
2019-03-24T15:57:49.416Z,65.80
2019-03-24T16:00:52.217Z,76.30
2019-03-24T16:03:36.486Z,66.77
2019-03-24T16:06:28.157Z,69.05
2019-03-24T16:09:12.255Z,70.67
2019-03-24T16:12:04.063Z,75.62
2019-03-24T16:14:48.310Z,74.70
2019-03-24T16:17:33.659Z,78.30
2019-03-24T16:20:25.422Z,72.45
2019-03-24T16:23:09.192Z,71.77
2019-03-24T16:26:00.990Z,66.35
2019-03-24T16:28:45.187Z,79.95
2019-03-24T16:31:36.679Z,66.85
2019-03-24T16:34:20.971Z,69.30
2019-03-24T16:37:12.918Z,65.52
2019-03-24T16:39:56.941Z,63.73
2019-03-24T16:42:40.710Z,61.55
2019-03-24T16:45:32.368Z,63.17
2019-03-24T16:48:16.630Z,69.40
2019-03-24T16:51:08.340Z,62.70
2019-03-24T16:53:52.701Z,70.57
2019-03-24T16:56:36.733Z,69.27
2019-03-24T16:59:20.870Z,62.93
2019-03-24T17:02:05.439Z,66.87
2019-03-24T17:04:58.061Z,68.62
2019-03-24T17:07:42.681Z,67.80
2019-03-24T17:10:34.331Z,70.30
2019-03-24T17:13:17.968Z,70.25
2019-03-24T17:16:10.002Z,69.60
2019-03-24T17:18:54.393Z,65.52
2019-03-24T17:21:50.188Z,64.75
2019-03-24T17:24:50.415Z,72.55
2019-03-24T17:27:42.116Z,72.40
2019-03-24T17:30:26.287Z,72.10
2019-03-24T17:33:17.961Z,66.47
2019-03-24T17:36:02.252Z,72.40
2019-03-24T17:38:53.780Z,71.33
2019-03-24T17:41:39.208Z,67.47
2019-03-24T17:44:31.938Z,73.07
2019-03-24T17:47:16.015Z,63.70
2019-03-24T17:50:09.214Z,63.87
2019-03-24T17:52:55.332Z,76.57
2019-03-24T17:55:39.708Z,73.70
2019-03-24T17:58:31.522Z,73.47
2019-03-24T18:01:15.979Z,67.92
2019-03-24T18:04:07.618Z,68.92
2019-03-24T18:06:51.857Z,75.45
2019-03-24T18:09:43.667Z,73.65
2019-03-24T18:12:16.464Z,66.67
2019-03-24T18:18:24.307Z,67.10
2019-03-24T18:21:09.365Z,68.28
2019-03-24T18:23:53.586Z,66.35
2019-03-24T18:26:45.252Z,64.72
2019-03-24T18:29:28.148Z,63.10
2019-03-24T18:32:19.880Z,67.20
2019-03-24T18:34:52.588Z,61.70
2019-03-24T18:37:44.499Z,66.22
2019-03-24T18:40:28.706Z,61.05
2019-03-24T18:43:01.514Z,64.95
2019-03-24T18:45:34.321Z,65.25
2019-03-24T18:48:08.054Z,67.40
2019-03-24T18:50:53.375Z,69.47
2019-03-24T18:53:45.169Z,60.17
2019-03-24T18:56:30.257Z,62.48
2019-03-24T18:59:03.103Z,62.65
2019-03-24T19:01:47.630Z,64.62
2019-03-24T19:04:39.398Z,63.87
2019-03-24T19:07:23.195Z,63.80
2019-03-24T19:10:14.954Z,56.98
2019-03-24T19:12:47.651Z,57.55
2019-03-24T19:15:20.437Z,54.65
2019-03-24T19:17:53.179Z,67.60
2019-03-24T19:20:25.828Z,62.85
2019-03-24T19:22:58.852Z,65.67
2019-03-24T19:25:31.665Z,64.32
2019-03-24T19:28:04.621Z,55.88
2019-03-24T19:30:57.766Z,62.05
2019-03-24T19:36:49.465Z,56.77
2019-03-24T19:39:41.182Z,65.37
2019-03-24T19:42:25.947Z,55.15
2019-03-24T19:45:17.671Z,55.52
2019-03-24T19:48:01.952Z,62.33
2019-03-24T19:50:46.720Z,53.87
2019-03-24T19:53:30.186Z,53.38
2019-03-24T19:56:15.268Z,52.60
2019-03-24T19:59:07.155Z,55.10
2019-03-24T20:01:51.739Z,54.05
2019-03-24T20:04:35.894Z,55.03
2019-03-24T20:07:27.836Z,55.85
2019-03-24T20:10:13.551Z,55.28
2019-03-24T20:13:05.425Z,53.60
2019-03-24T20:15:49.656Z,54.85
2019-03-24T20:18:41.387Z,54.05
2019-03-24T20:21:25.238Z,53.08
2019-03-24T20:24:16.960Z,57.50
2019-03-24T20:27:01.344Z,55.28
2019-03-24T20:29:45.766Z,51.92
2019-03-24T20:32:31.261Z,54.88
2019-03-24T20:35:15.076Z,50.17
2019-03-24T20:38:10.199Z,55.55
2019-03-24T20:40:54.493Z,50.38
2019-03-24T20:44:01.718Z,46.20
2019-03-24T20:46:48.456Z,52.10
2019-03-24T20:49:34.987Z,49.70
2019-03-24T20:52:26.803Z,55.73
2019-03-24T20:55:11.159Z,55.30
2019-03-24T20:57:55.590Z,53.13
2019-03-24T21:00:39.943Z,49.90
2019-03-24T21:03:31.654Z,53.75
2019-03-24T21:06:14.577Z,49.38
2019-03-24T21:09:08.164Z,52.10
2019-03-24T21:11:52.565Z,51.08
2019-03-24T21:14:47.266Z,53.80
2019-03-24T21:17:32.505Z,53.13
2019-03-24T21:20:24.330Z,47.58
2019-03-24T21:23:07.396Z,43.58
2019-03-24T21:25:59.119Z,45.23
2019-03-24T21:28:43.591Z,41.10
2019-03-24T21:31:35.911Z,44.33
2019-03-24T21:34:20.181Z,44.45
2019-03-24T21:37:12.607Z,41.37
2019-03-24T21:39:45.462Z,42.48
2019-03-24T21:42:37.194Z,45.50
2019-03-24T21:45:21.981Z,46.10
2019-03-24T21:48:05.704Z,44.65
2019-03-24T21:50:50.693Z,49.70
2019-03-24T21:53:42.822Z,42.80
2019-03-24T21:56:26.737Z,43.70
2019-03-24T21:59:18.671Z,40.95
2019-03-24T22:02:03.150Z,43.65
2019-03-24T22:04:56.024Z,42.23
2019-03-24T22:07:45.979Z,39.73
2019-03-24T22:10:37.762Z,38.73
2019-03-24T22:13:22.427Z,40.90
2019-03-24T22:16:14.355Z,42.10
2019-03-24T22:18:58.293Z,37.05
2019-03-24T22:21:50.121Z,39.88
2019-03-24T22:24:34.273Z,38.30
2019-03-24T22:27:25.990Z,37.48
2019-03-24T22:30:11.025Z,30.08
2019-03-24T22:33:02.552Z,32.08
2019-03-24T22:35:47.256Z,35.60
2019-03-24T22:38:39.055Z,31.35
2019-03-24T22:41:23.190Z,37.78
2019-03-24T22:44:15.371Z,31.55
2019-03-24T22:46:59.513Z,36.98
2019-03-24T22:49:51.479Z,32.40
2019-03-24T22:52:35.989Z,41.35
2019-03-24T22:55:27.764Z,36.30
2019-03-24T22:58:12.314Z,39.30
2019-03-24T23:01:04.488Z,42.70
2019-03-24T23:03:50.815Z,36.08
2019-03-24T23:06:42.555Z,37.65
2019-03-24T23:09:26.613Z,44.93
2019-03-24T23:12:18.334Z,38.90
2019-03-24T23:15:02.229Z,42.15
2019-03-24T23:17:55.027Z,44.03
2019-03-24T23:20:39.392Z,45.28
2019-03-24T23:23:31.155Z,45.73
2019-03-24T23:26:14.938Z,45.08
2019-03-24T23:29:06.759Z,41.13
2019-03-24T23:31:53.447Z,40.95
2019-03-24T23:34:45.165Z,39.88
2019-03-24T23:37:28.757Z,39.95
2019-03-24T23:40:20.425Z,36.55
2019-03-24T23:43:04.330Z,42.17
2019-03-24T23:45:48.075Z,31.97
2019-03-24T23:48:32.132Z,29.98
2019-03-24T23:51:17.620Z,32.95
2019-03-24T23:54:09.388Z,29.27
2019-03-24T23:56:53.257Z,31.60
2019-03-24T23:59:45.390Z,31.17
